createdAt,value
2022-09-23T00:01:08.213Z,96561.81
2022-09-23T00:05:21.497Z,96554.13
2022-09-23T00:09:34.640Z,96549.53
2022-09-23T00:13:50.283Z,96552.28
2022-09-23T00:18:03.311Z,96559.06
2022-09-23T00:22:17.335Z,96558.28
2022-09-23T00:26:30.516Z,96541.19
2022-09-23T00:30:45.546Z,96538.47
2022-09-23T00:34:58.765Z,96540.47
2022-09-23T00:39:11.885Z,96537.03
2022-09-23T00:43:50.623Z,96546.44
2022-09-23T00:48:04.499Z,96543.75
2022-09-23T00:52:20.041Z,96541.84
2022-09-23T00:56:34.244Z,96532.88
2022-09-23T01:00:47.726Z,96531.00
2022-09-23T01:05:04.055Z,96527.16
2022-09-23T01:09:18.028Z,96532.69
2022-09-23T01:13:33.981Z,96519.53
2022-09-23T01:18:02.451Z,96517.53
2022-09-23T01:22:23.598Z,96505.56
2022-09-23T01:26:59.053Z,96511.91
2022-09-23T01:36:22.013Z,96513.66
2022-09-23T01:40:50.046Z,96507.13
2022-09-23T01:45:31.888Z,96497.91
2022-09-23T01:50:01.570Z,96492.53
2022-09-23T01:54:30.638Z,96496.94
2022-09-23T01:58:57.510Z,96505.44
2022-09-23T02:03:14.313Z,96492.19
2022-09-23T02:07:51.071Z,96477.38
2022-09-23T02:12:09.671Z,96483.78
2022-09-23T02:16:32.844Z,96495.63
2022-09-23T02:20:47.997Z,96489.25
2022-09-23T02:25:01.183Z,96490.00
2022-09-23T02:29:20.407Z,96499.06
2022-09-23T02:33:44.233Z,96508.03
2022-09-23T02:38:20.471Z,96497.44
2022-09-23T02:42:45.397Z,96492.84
2022-09-23T02:46:58.600Z,96492.16
2022-09-23T02:51:11.766Z,96482.53
2022-09-23T02:55:27.779Z,96491.03
2022-09-23T02:59:41.825Z,96489.56
2022-09-23T03:04:21.226Z,96480.66
2022-09-23T03:08:46.885Z,96468.97
2022-09-23T03:13:15.453Z,96474.66
2022-09-23T03:17:47.602Z,96485.34
2022-09-23T03:22:13.169Z,96478.25
2022-09-23T03:26:32.096Z,96477.94
2022-09-23T03:30:45.652Z,96474.91
2022-09-23T03:35:02.231Z,96471.41
2022-09-23T03:39:29.005Z,96474.13
2022-09-23T03:43:42.144Z,96458.25
2022-09-23T03:48:05.478Z,96465.28
2022-09-23T03:52:21.326Z,96471.53
2022-09-23T03:56:34.360Z,96463.59
2022-09-23T04:00:47.517Z,96465.91
2022-09-23T04:05:11.110Z,96468.63
2022-09-23T04:09:24.393Z,96460.88
2022-09-23T04:13:41.285Z,96452.88
2022-09-23T04:17:54.308Z,96462.50
2022-09-23T04:22:08.581Z,96460.56
2022-09-23T04:26:21.691Z,96454.31
2022-09-23T04:30:34.792Z,96454.81
2022-09-23T04:34:47.940Z,96447.91
2022-09-23T04:39:01.568Z,96458.38
2022-09-23T04:43:18.153Z,96454.13
2022-09-23T04:47:32.711Z,96458.06
2022-09-23T04:51:46.749Z,96450.66
2022-09-23T04:56:08.172Z,96456.31
2022-09-23T05:00:21.579Z,96456.75
2022-09-23T05:04:34.702Z,96455.28
2022-09-23T05:08:50.678Z,96459.97
2022-09-23T05:13:04.325Z,96453.72
2022-09-23T05:17:17.576Z,96450.56
2022-09-23T05:21:32.988Z,96457.97
2022-09-23T05:25:46.161Z,96460.63
2022-09-23T05:30:09.012Z,96466.31
2022-09-23T05:34:21.977Z,96466.19
2022-09-23T05:38:35.211Z,96466.41
2022-09-23T05:42:48.300Z,96457.44
2022-09-23T05:47:01.595Z,96459.63
2022-09-23T05:51:17.992Z,96466.50
2022-09-23T05:55:31.690Z,96471.88
2022-09-23T05:59:48.497Z,96460.34
2022-09-23T06:04:03.341Z,96466.28
2022-09-23T06:08:16.441Z,96457.91
2022-09-23T06:12:29.393Z,96455.72
2022-09-23T06:16:42.453Z,96460.09
2022-09-23T06:20:55.406Z,96452.00
2022-09-23T06:25:10.054Z,96456.53
2022-09-23T06:29:23.158Z,96450.31
2022-09-23T06:33:37.440Z,96453.28
2022-09-23T06:37:50.677Z,96449.22
2022-09-23T06:42:03.875Z,96457.41
2022-09-23T06:46:17.194Z,96450.72
2022-09-23T06:50:31.738Z,96456.44
2022-09-23T06:54:44.745Z,96455.25
2022-09-23T06:58:57.695Z,96449.47
2022-09-23T07:03:10.886Z,96455.03
2022-09-23T07:07:24.444Z,96465.53
2022-09-23T07:11:38.432Z,96460.09
2022-09-23T07:15:52.855Z,96460.56
2022-09-23T07:20:06.584Z,96463.81
2022-09-23T07:24:19.554Z,96463.72
2022-09-23T07:28:33.302Z,96460.09
2022-09-23T07:32:53.929Z,96469.09
2022-09-23T07:37:07.073Z,96460.59
2022-09-23T07:41:20.444Z,96455.31
2022-09-23T07:45:36.650Z,96473.19
2022-09-23T07:49:49.793Z,96475.00
2022-09-23T07:54:03.185Z,96466.66
2022-09-23T07:58:16.306Z,96468.50
2022-09-23T08:02:29.332Z,96471.63
2022-09-23T08:06:44.414Z,96468.69
2022-09-23T08:11:09.077Z,96469.47
2022-09-23T08:15:22.919Z,96476.81
2022-09-23T08:19:37.437Z,96472.72
2022-09-23T08:23:50.716Z,96481.38
2022-09-23T08:28:07.807Z,96483.69
2022-09-23T08:32:20.769Z,96485.69
2022-09-23T08:36:43.820Z,96479.84
2022-09-23T08:41:08.615Z,96470.41
2022-09-23T08:45:26.492Z,96476.63
2022-09-23T08:49:51.622Z,96469.63
2022-09-23T08:54:04.733Z,96464.06
2022-09-23T08:58:50.345Z,96466.09
2022-09-23T09:03:23.591Z,96459.66
2022-09-23T09:07:42.823Z,96458.09
2022-09-23T09:12:19.375Z,96456.91
2022-09-23T09:17:02.412Z,96456.88
2022-09-23T09:21:16.739Z,96457.06
2022-09-23T09:25:38.825Z,96445.31
2022-09-23T09:29:55.362Z,96450.03
2022-09-23T09:34:12.170Z,96445.94
2022-09-23T09:38:25.279Z,96434.88
2022-09-23T09:42:41.022Z,96432.13
2022-09-23T09:47:16.232Z,96433.44
2022-09-23T09:51:30.121Z,96427.56
2022-09-23T09:55:45.385Z,96420.19
2022-09-23T09:59:59.331Z,96414.91
2022-09-23T10:04:23.326Z,96411.00
2022-09-23T10:08:37.898Z,96405.28
2022-09-23T10:12:52.960Z,96408.38
2022-09-23T10:17:09.062Z,96406.19
2022-09-23T10:21:28.040Z,96403.78
2022-09-23T10:25:42.438Z,96400.13
2022-09-23T10:29:59.133Z,96396.97
2022-09-23T10:34:26.997Z,96393.09
2022-09-23T10:38:40.247Z,96394.06
2022-09-23T10:43:24.507Z,96388.50
2022-09-23T10:48:22.489Z,96385.75
2022-09-23T10:52:48.212Z,96385.16
2022-09-23T10:57:41.906Z,96375.41
2022-09-23T11:01:59.897Z,96366.69
2022-09-23T11:07:01.233Z,96359.53
2022-09-23T11:11:14.168Z,96359.34
2022-09-23T11:15:49.338Z,96357.81
2022-09-23T11:20:14.517Z,96352.38
2022-09-23T11:24:49.603Z,96342.25
2022-09-23T11:29:11.934Z,96338.56
2022-09-23T11:33:53.521Z,96344.38
2022-09-23T11:38:22.055Z,96332.41
2022-09-23T11:42:39.099Z,96329.16
2022-09-23T11:47:09.821Z,96328.88
2022-09-23T11:51:30.033Z,96322.41
2022-09-23T11:55:57.171Z,96322.38
2022-09-23T12:00:20.073Z,96301.53
2022-09-23T12:04:49.963Z,96306.69
2022-09-23T12:09:16.656Z,96300.84
2022-09-23T12:13:53.834Z,96299.16
2022-09-23T12:18:19.566Z,96300.06
2022-09-23T12:22:51.860Z,96298.44
2022-09-23T12:27:09.901Z,96286.06
2022-09-23T12:31:39.314Z,96278.91
2022-09-23T12:35:56.754Z,96288.63
2022-09-23T12:40:22.261Z,96278.75
2022-09-23T12:44:44.296Z,96272.78
2022-09-23T12:49:01.240Z,96265.16
2022-09-23T12:53:36.180Z,96258.56
2022-09-23T12:57:49.863Z,96261.53
2022-09-23T13:02:34.075Z,96258.22
2022-09-23T13:07:06.572Z,96252.34
2022-09-23T13:11:28.140Z,96239.06
2022-09-23T13:15:43.129Z,96247.47
2022-09-23T13:20:02.550Z,96234.88
2022-09-23T13:24:30.725Z,96234.09
2022-09-23T13:28:59.200Z,96218.97
2022-09-23T13:33:19.905Z,96210.94
2022-09-23T13:37:43.629Z,96207.59
2022-09-23T13:42:03.956Z,96200.25
2022-09-23T13:46:21.217Z,96193.84
2022-09-23T13:50:39.166Z,96194.28
2022-09-23T13:54:52.885Z,96194.16
2022-09-23T13:59:30.196Z,96196.09
2022-09-23T14:03:45.128Z,96196.91
2022-09-23T14:08:03.386Z,96188.13
2022-09-23T14:12:22.698Z,96187.78
2022-09-23T14:16:41.263Z,96182.00
2022-09-23T14:20:54.447Z,96169.94
2022-09-23T14:25:18.389Z,96172.75
2022-09-23T14:29:34.593Z,96174.16
2022-09-23T14:33:47.737Z,96158.78
2022-09-23T14:38:19.310Z,96160.91
2022-09-23T14:42:39.794Z,96160.50
2022-09-23T14:46:59.061Z,96160.00
2022-09-23T14:51:16.969Z,96153.91
2022-09-23T14:55:32.090Z,96156.03
2022-09-23T14:59:53.796Z,96155.53
2022-09-23T15:04:17.680Z,96149.34
2022-09-23T15:08:33.844Z,96146.88
2022-09-23T15:12:48.247Z,96142.28
2022-09-23T15:17:03.055Z,96134.63
2022-09-23T15:21:20.032Z,96138.06
2022-09-23T15:25:41.516Z,96138.34
2022-09-23T15:29:55.166Z,96135.16
2022-09-23T15:34:11.058Z,96125.66
2022-09-23T15:38:24.667Z,96121.97
2022-09-23T15:42:39.169Z,96120.94
2022-09-23T15:46:52.671Z,96120.47
2022-09-23T15:51:08.894Z,96115.16
2022-09-23T15:55:24.662Z,96116.53
2022-09-23T15:59:38.929Z,96116.78
2022-09-23T16:03:53.422Z,96115.56
2022-09-23T16:08:09.745Z,96111.72
2022-09-23T16:12:23.198Z,96124.59
2022-09-23T16:16:36.198Z,96115.19
2022-09-23T16:20:51.087Z,96122.66
2022-09-23T16:25:06.834Z,96116.28
2022-09-23T16:29:19.832Z,96118.31
2022-09-23T16:33:32.851Z,96130.25
2022-09-23T16:37:47.809Z,96135.66
2022-09-23T16:42:01.009Z,96129.84
2022-09-23T16:46:17.193Z,96126.06
2022-09-23T16:50:30.552Z,96126.22
2022-09-23T16:54:44.152Z,96128.88
2022-09-23T16:58:58.313Z,96129.19
2022-09-23T17:03:31.801Z,96129.63
2022-09-23T17:07:44.913Z,96125.44
2022-09-23T17:12:17.695Z,96123.00
2022-09-23T17:16:35.046Z,96129.25
2022-09-23T17:21:00.035Z,96120.47
2022-09-23T17:25:13.225Z,96133.38
2022-09-23T17:29:27.615Z,96140.28
2022-09-23T17:33:50.978Z,96142.66
2022-09-23T17:38:03.932Z,96148.09
2022-09-23T17:42:18.924Z,96143.22
2022-09-23T17:46:32.909Z,96147.75
2022-09-23T17:50:55.491Z,96149.50
2022-09-23T17:55:09.507Z,96151.94
2022-09-23T17:59:22.527Z,96147.22
2022-09-23T18:03:44.139Z,96145.75
2022-09-23T18:07:57.096Z,96140.16
2022-09-23T18:12:10.481Z,96135.19
2022-09-23T18:16:37.709Z,96143.16
2022-09-23T18:20:50.782Z,96143.84
2022-09-23T18:25:22.776Z,96144.34
2022-09-23T18:29:37.374Z,96138.75
2022-09-23T18:33:52.517Z,96145.38
2022-09-23T18:38:05.514Z,96149.66
2022-09-23T18:42:21.155Z,96144.94
2022-09-23T18:46:34.506Z,96144.84
2022-09-23T18:50:49.639Z,96140.88
2022-09-23T18:55:02.724Z,96142.69
2022-09-23T18:59:18.865Z,96149.00
2022-09-23T19:03:31.858Z,96152.09
2022-09-23T19:07:44.856Z,96150.72
2022-09-23T19:11:58.540Z,96147.03
2022-09-23T19:16:14.891Z,96150.41
2022-09-23T19:20:27.909Z,96155.47
2022-09-23T19:24:41.285Z,96142.75
2022-09-23T19:28:56.396Z,96140.44
2022-09-23T19:33:10.714Z,96143.34
2022-09-23T19:37:23.874Z,96137.06
2022-09-23T19:41:36.885Z,96131.84
2022-09-23T19:45:56.798Z,96128.78
2022-09-23T19:50:22.499Z,96128.00
2022-09-23T19:54:35.663Z,96132.31
2022-09-23T19:58:54.998Z,96120.06
2022-09-23T20:03:09.327Z,96117.91
2022-09-23T20:07:22.326Z,96117.72
2022-09-23T20:11:35.897Z,96133.94
2022-09-23T20:15:49.850Z,96120.34
2022-09-23T20:20:02.960Z,96113.56
2022-09-23T20:24:15.949Z,96117.59
2022-09-23T20:28:29.490Z,96110.53
2022-09-23T20:32:44.796Z,96114.97
2022-09-23T20:36:58.436Z,96114.63
2022-09-23T20:41:11.649Z,96112.94
2022-09-23T20:45:24.659Z,96117.53
2022-09-23T20:49:38.537Z,96117.22
2022-09-23T20:53:53.504Z,96106.63
2022-09-23T20:58:07.824Z,96103.56
2022-09-23T21:02:20.891Z,96099.63
2022-09-23T21:06:38.210Z,96101.63
2022-09-23T21:11:00.326Z,96092.59
2022-09-23T21:15:14.232Z,96096.44
2022-09-23T21:19:28.673Z,96087.88
2022-09-23T21:23:43.692Z,96091.22
2022-09-23T21:27:56.856Z,96084.50
2022-09-23T21:32:11.133Z,96083.44
2022-09-23T21:36:25.380Z,96083.75
2022-09-23T21:40:57.862Z,96084.81
2022-09-23T21:45:11.495Z,96083.13
2022-09-23T21:49:24.672Z,96084.81
2022-09-23T21:53:38.612Z,96088.78
2022-09-23T21:57:52.382Z,96082.97
2022-09-23T22:02:05.416Z,96081.16
2022-09-23T22:06:22.159Z,96080.38
2022-09-23T22:10:38.155Z,96083.13
2022-09-23T22:14:51.796Z,96073.91
2022-09-23T22:19:08.449Z,96066.56
2022-09-23T22:23:23.458Z,96069.63
2022-09-23T22:28:22.067Z,96067.47
2022-09-23T22:32:54.360Z,96070.13
2022-09-23T22:37:08.477Z,96068.88
2022-09-23T22:41:25.060Z,96067.50
2022-09-23T22:45:40.361Z,96060.31
2022-09-23T22:49:56.214Z,96049.59
2022-09-23T22:54:10.801Z,96050.50
2022-09-23T22:58:32.233Z,96057.25
2022-09-23T23:02:45.767Z,96057.56
2022-09-23T23:07:09.176Z,96045.00
2022-09-23T23:11:26.236Z,96043.63
2022-09-23T23:15:40.059Z,96040.72
2022-09-23T23:19:53.318Z,96044.09
2022-09-23T23:24:07.242Z,96038.25
2022-09-23T23:28:20.530Z,96021.25
2022-09-23T23:32:33.528Z,96024.47
2022-09-23T23:36:48.868Z,96020.47
2022-09-23T23:41:04.014Z,96013.75
2022-09-23T23:45:17.455Z,96024.00
2022-09-23T23:49:30.603Z,96022.78
2022-09-23T23:53:45.072Z,96024.31
2022-09-23T23:58:03.885Z,96022.81
